sensor_id;sensor_type;location;lat;lon;timestamp;P1;durP1;ratioP1;P2;durP2;ratioP2
65096;SDS011;51686;46.758;4.356;2022-10-31T04:43:02;10.50;;;4.95;;
65096;SDS011;51686;46.758;4.356;2022-10-31T04:46:05;8.95;;;5.05;;
65096;SDS011;51686;46.758;4.356;2022-10-31T04:49:01;10.25;;;4.88;;
65096;SDS011;51686;46.758;4.356;2022-10-31T04:51:57;10.77;;;5.45;;
65096;SDS011;51686;46.758;4.356;2022-10-31T04:54:50;9.68;;;4.93;;
65096;SDS011;51686;46.758;4.356;2022-10-31T04:57:46;10.90;;;5.00;;
65096;SDS011;51686;46.758;4.356;2022-10-31T05:00:42;10.57;;;5.43;;
65096;SDS011;51686;46.758;4.356;2022-10-31T05:03:55;10.00;;;4.85;;
65096;SDS011;51686;46.758;4.356;2022-10-31T05:06:57;11.15;;;5.43;;
65096;SDS011;51686;46.758;4.356;2022-10-31T05:10:18;9.82;;;4.90;;
65096;SDS011;51686;46.758;4.356;2022-10-31T05:13:27;9.27;;;4.50;;
65096;SDS011;51686;46.758;4.356;2022-10-31T05:16:40;9.57;;;4.15;;
65096;SDS011;51686;46.758;4.356;2022-10-31T05:19:49;9.70;;;4.70;;
65096;SDS011;51686;46.758;4.356;2022-10-31T05:23:03;8.50;;;4.30;;
65096;SDS011;51686;46.758;4.356;2022-10-31T05:32:42;9.48;;;4.05;;
65096;SDS011;51686;46.758;4.356;2022-10-31T05:36:21;8.60;;;4.10;;
65096;SDS011;51686;46.758;4.356;2022-10-31T05:39:18;9.00;;;4.93;;
65096;SDS011;51686;46.758;4.356;2022-10-31T05:42:47;8.45;;;4.28;;
65096;SDS011;51686;46.758;4.356;2022-10-31T05:46:04;9.15;;;3.88;;
65096;SDS011;51686;46.758;4.356;2022-10-31T05:52:07;7.68;;;3.78;;
65096;SDS011;51686;46.758;4.356;2022-10-31T06:02:25;7.70;;;3.72;;
65096;SDS011;51686;46.758;4.356;2022-10-31T06:09:07;7.78;;;3.72;;
65096;SDS011;51686;46.758;4.356;2022-10-31T06:15:16;8.68;;;3.65;;
65096;SDS011;51686;46.758;4.356;2022-10-31T06:18:13;7.85;;;3.53;;
65096;SDS011;51686;46.758;4.356;2022-10-31T06:21:14;8.23;;;3.65;;
65096;SDS011;51686;46.758;4.356;2022-10-31T06:24:18;7.90;;;3.38;;
65096;SDS011;51686;46.758;4.356;2022-10-31T06:27:11;7.78;;;3.45;;
65096;SDS011;51686;46.758;4.356;2022-10-31T06:30:17;6.55;;;3.13;;
65096;SDS011;51686;46.758;4.356;2022-10-31T06:33:28;7.25;;;3.40;;
65096;SDS011;51686;46.758;4.356;2022-10-31T06:44:34;6.82;;;3.22;;
65096;SDS011;51686;46.758;4.356;2022-10-31T06:48:11;7.60;;;3.30;;
65096;SDS011;51686;46.758;4.356;2022-10-31T06:51:35;7.82;;;3.35;;
65096;SDS011;51686;46.758;4.356;2022-10-31T06:59:00;6.50;;;3.00;;
65096;SDS011;51686;46.758;4.356;2022-10-31T07:06:13;6.05;;;3.03;;
65096;SDS011;51686;46.758;4.356;2022-10-31T07:13:57;6.90;;;2.85;;
65096;SDS011;51686;46.758;4.356;2022-10-31T07:22:07;5.93;;;2.50;;
65096;SDS011;51686;46.758;4.356;2022-10-31T07:25:23;6.63;;;2.78;;
65096;SDS011;51686;46.758;4.356;2022-10-31T07:37:20;6.50;;;2.88;;
65096;SDS011;51686;46.758;4.356;2022-10-31T07:41:01;6.20;;;2.80;;
65096;SDS011;51686;46.758;4.356;2022-10-31T07:44:41;6.50;;;2.97;;
65096;SDS011;51686;46.758;4.356;2022-10-31T07:55:44;8.00;;;3.30;;
65096;SDS011;51686;46.758;4.356;2022-10-31T07:58:39;8.10;;;3.60;;
65096;SDS011;51686;46.758;4.356;2022-10-31T08:05:28;7.78;;;3.42;;
65096;SDS011;51686;46.758;4.356;2022-10-31T08:08:55;7.63;;;3.55;;
65096;SDS011;51686;46.758;4.356;2022-10-31T08:12:27;7.88;;;3.65;;
65096;SDS011;51686;46.758;4.356;2022-10-31T08:16:19;7.15;;;3.35;;
65096;SDS011;51686;46.758;4.356;2022-10-31T08:20:03;8.50;;;4.20;;
65096;SDS011;51686;46.758;4.356;2022-10-31T08:23:25;7.80;;;3.97;;
65096;SDS011;51686;46.758;4.356;2022-10-31T08:26:39;7.68;;;3.78;;
65096;SDS011;51686;46.758;4.356;2022-10-31T08:34:26;7.40;;;3.63;;
65096;SDS011;51686;46.758;4.356;2022-10-31T08:41:17;7.68;;;3.80;;
65096;SDS011;51686;46.758;4.356;2022-10-31T08:44:13;7.68;;;3.55;;
65096;SDS011;51686;46.758;4.356;2022-10-31T08:48:49;7.70;;;3.40;;
65096;SDS011;51686;46.758;4.356;2022-10-31T08:52:28;7.80;;;3.90;;
65096;SDS011;51686;46.758;4.356;2022-10-31T08:56:21;8.02;;;3.38;;
65096;SDS011;51686;46.758;4.356;2022-10-31T08:59:47;7.75;;;3.50;;
65096;SDS011;51686;46.758;4.356;2022-10-31T09:02:53;7.93;;;3.30;;
65096;SDS011;51686;46.758;4.356;2022-10-31T09:09:59;7.72;;;3.80;;
65096;SDS011;51686;46.758;4.356;2022-10-31T09:24:19;7.93;;;3.75;;
65096;SDS011;51686;46.758;4.356;2022-10-31T09:27:57;8.25;;;3.92;;
65096;SDS011;51686;46.758;4.356;2022-10-31T09:30:46;8.05;;;3.85;;
65096;SDS011;51686;46.758;4.356;2022-10-31T09:33:34;7.68;;;3.33;;
65096;SDS011;51686;46.758;4.356;2022-10-31T09:36:21;6.97;;;3.20;;
65096;SDS011;51686;46.758;4.356;2022-10-31T09:48:00;8.15;;;3.40;;
65096;SDS011;51686;46.758;4.356;2022-10-31T09:55:27;7.95;;;3.03;;
65096;SDS011;51686;46.758;4.356;2022-10-31T09:58:27;10.02;;;3.80;;
65096;SDS011;51686;46.758;4.356;2022-10-31T10:07:29;8.73;;;3.50;;
65096;SDS011;51686;46.758;4.356;2022-10-31T10:25:41;8.60;;;3.70;;
65096;SDS011;51686;46.758;4.356;2022-10-31T10:49:51;9.73;;;4.53;;
65096;SDS011;51686;46.758;4.356;2022-10-31T10:52:44;8.90;;;4.43;;
65096;SDS011;51686;46.758;4.356;2022-10-31T11:00:40;9.15;;;4.15;;
65096;SDS011;51686;46.758;4.356;2022-10-31T11:04:45;10.38;;;4.43;;
65096;SDS011;51686;46.758;4.356;2022-10-31T11:11:57;9.30;;;4.63;;
65096;SDS011;51686;46.758;4.356;2022-10-31T11:15:24;9.13;;;4.53;;
65096;SDS011;51686;46.758;4.356;2022-10-31T11:30:26;12.13;;;5.78;;
65096;SDS011;51686;46.758;4.356;2022-10-31T11:34:30;10.95;;;6.00;;
65096;SDS011;51686;46.758;4.356;2022-10-31T11:37:40;13.13;;;6.43;;
65096;SDS011;51686;46.758;4.356;2022-10-31T11:40:33;9.90;;;6.25;;
65096;SDS011;51686;46.758;4.356;2022-10-31T11:43:20;11.68;;;7.18;;
65096;SDS011;51686;46.758;4.356;2022-10-31T11:46:17;13.35;;;7.22;;
65096;SDS011;51686;46.758;4.356;2022-10-31T11:52:24;14.15;;;8.02;;
65096;SDS011;51686;46.758;4.356;2022-10-31T11:55:15;13.75;;;8.07;;
65096;SDS011;51686;46.758;4.356;2022-10-31T11:58:26;11.95;;;7.47;;
65096;SDS011;51686;46.758;4.356;2022-10-31T12:01:24;13.27;;;7.80;;
65096;SDS011;51686;46.758;4.356;2022-10-31T12:04:12;12.77;;;7.55;;
65096;SDS011;51686;46.758;4.356;2022-10-31T12:06:59;15.27;;;8.57;;
65096;SDS011;51686;46.758;4.356;2022-10-31T12:09:46;12.68;;;7.97;;
65096;SDS011;51686;46.758;4.356;2022-10-31T12:15:50;13.32;;;7.68;;
65096;SDS011;51686;46.758;4.356;2022-10-31T12:24:57;13.77;;;7.68;;
65096;SDS011;51686;46.758;4.356;2022-10-31T12:28:13;12.80;;;7.45;;
65096;SDS011;51686;46.758;4.356;2022-10-31T12:32:00;11.73;;;6.88;;
65096;SDS011;51686;46.758;4.356;2022-10-31T12:35:10;13.02;;;7.55;;
65096;SDS011;51686;46.758;4.356;2022-10-31T12:41:44;12.48;;;7.50;;
65096;SDS011;51686;46.758;4.356;2022-10-31T12:45:17;11.35;;;6.80;;
65096;SDS011;51686;46.758;4.356;2022-10-31T12:52:03;12.10;;;7.38;;
65096;SDS011;51686;46.758;4.356;2022-10-31T12:55:06;13.50;;;7.85;;
65096;SDS011;51686;46.758;4.356;2022-10-31T12:58:01;13.27;;;7.45;;
65096;SDS011;51686;46.758;4.356;2022-10-31T13:01:12;14.57;;;7.60;;
65096;SDS011;51686;46.758;4.356;2022-10-31T13:07:37;13.77;;;8.10;;
65096;SDS011;51686;46.758;4.356;2022-10-31T13:10:29;12.27;;;7.03;;
65096;SDS011;51686;46.758;4.356;2022-10-31T13:13:23;13.95;;;7.53;;
65096;SDS011;51686;46.758;4.356;2022-10-31T13:16:15;13.75;;;7.88;;
65096;SDS011;51686;46.758;4.356;2022-10-31T13:19:09;13.07;;;7.82;;
65096;SDS011;51686;46.758;4.356;2022-10-31T13:27:49;12.23;;;7.38;;
65096;SDS011;51686;46.758;4.356;2022-10-31T13:30:40;13.63;;;8.00;;
65096;SDS011;51686;46.758;4.356;2022-10-31T13:33:33;12.55;;;7.45;;
65096;SDS011;51686;46.758;4.356;2022-10-31T13:37:01;12.30;;;7.22;;
65096;SDS011;51686;46.758;4.356;2022-10-31T13:43:29;12.13;;;7.32;;
65096;SDS011;51686;46.758;4.356;2022-10-31T13:46:46;12.98;;;8.10;;
65096;SDS011;51686;46.758;4.356;2022-10-31T13:52:23;13.75;;;7.53;;
65096;SDS011;51686;46.758;4.356;2022-10-31T14:01:57;13.27;;;7.32;;
65096;SDS011;51686;46.758;4.356;2022-10-31T14:04:48;12.45;;;7.45;;
65096;SDS011;51686;46.758;4.356;2022-10-31T14:07:42;14.48;;;8.00;;
65096;SDS011;51686;46.758;4.356;2022-10-31T14:10:38;13.85;;;7.70;;
65096;SDS011;51686;46.758;4.356;2022-10-31T14:13:34;12.95;;;6.53;;
65096;SDS011;51686;46.758;4.356;2022-10-31T14:16:31;12.35;;;7.63;;
65096;SDS011;51686;46.758;4.356;2022-10-31T14:19:18;13.88;;;7.72;;
65096;SDS011;51686;46.758;4.356;2022-10-31T14:22:22;12.50;;;7.50;;
65096;SDS011;51686;46.758;4.356;2022-10-31T14:25:26;13.13;;;7.53;;
65096;SDS011;51686;46.758;4.356;2022-10-31T14:28:32;13.32;;;7.30;;
65096;SDS011;51686;46.758;4.356;2022-10-31T14:34:32;13.93;;;6.90;;
65096;SDS011;51686;46.758;4.356;2022-10-31T14:46:37;12.40;;;6.88;;
65096;SDS011;51686;46.758;4.356;2022-10-31T14:49:40;13.27;;;7.05;;
65096;SDS011;51686;46.758;4.356;2022-10-31T14:52:50;12.02;;;6.68;;
65096;SDS011;51686;46.758;4.356;2022-10-31T14:55:42;12.93;;;6.82;;
65096;SDS011;51686;46.758;4.356;2022-10-31T15:10:28;11.68;;;6.15;;
65096;SDS011;51686;46.758;4.356;2022-10-31T15:13:33;11.93;;;6.60;;
65096;SDS011;51686;46.758;4.356;2022-10-31T15:16:21;14.10;;;7.03;;
65096;SDS011;51686;46.758;4.356;2022-10-31T15:19:20;12.88;;;6.90;;
65096;SDS011;51686;46.758;4.356;2022-10-31T15:22:17;11.32;;;6.40;;
65096;SDS011;51686;46.758;4.356;2022-10-31T15:25:23;10.75;;;6.40;;
65096;SDS011;51686;46.758;4.356;2022-10-31T15:28:16;11.85;;;6.25;;
65096;SDS011;51686;46.758;4.356;2022-10-31T15:31:12;13.40;;;6.78;;
65096;SDS011;51686;46.758;4.356;2022-10-31T15:37:26;10.80;;;5.97;;
65096;SDS011;51686;46.758;4.356;2022-10-31T15:40:14;12.27;;;6.38;;
65096;SDS011;51686;46.758;4.356;2022-10-31T15:43:03;10.88;;;6.53;;
65096;SDS011;51686;46.758;4.356;2022-10-31T15:45:51;12.25;;;6.05;;
65096;SDS011;51686;46.758;4.356;2022-10-31T15:48:38;11.63;;;5.80;;
65096;SDS011;51686;46.758;4.356;2022-10-31T15:51:28;12.45;;;6.38;;
65096;SDS011;51686;46.758;4.356;2022-10-31T15:54:19;12.25;;;6.40;;
65096;SDS011;51686;46.758;4.356;2022-10-31T15:57:11;10.77;;;6.03;;
65096;SDS011;51686;46.758;4.356;2022-10-31T15:59:58;10.68;;;6.15;;
65096;SDS011;51686;46.758;4.356;2022-10-31T16:02:48;11.40;;;6.13;;
65096;SDS011;51686;46.758;4.356;2022-10-31T16:05:39;9.93;;;5.63;;
65096;SDS011;51686;46.758;4.356;2022-10-31T16:08:44;10.73;;;6.22;;
65096;SDS011;51686;46.758;4.356;2022-10-31T16:11:36;11.35;;;5.78;;
65096;SDS011;51686;46.758;4.356;2022-10-31T16:14:27;12.13;;;6.00;;
65096;SDS011;51686;46.758;4.356;2022-10-31T16:26:13;11.70;;;6.38;;
65096;SDS011;51686;46.758;4.356;2022-10-31T17:18:31;10.30;;;5.80;;
